sensor_id;sensor_type;location;lat;lon;timestamp;P1;durP1;ratioP1;P2;durP2;ratioP2
42246;SDS011;27913;42.722;23.268;2023-02-28T00:00:29;13.90;;;6.07;;
42246;SDS011;27913;42.722;23.268;2023-02-28T00:02:55;16.30;;;5.93;;
42246;SDS011;27913;42.722;23.268;2023-02-28T00:05:21;14.02;;;5.38;;
42246;SDS011;27913;42.722;23.268;2023-02-28T00:07:48;12.05;;;5.25;;
42246;SDS011;27913;42.722;23.268;2023-02-28T00:10:18;21.05;;;8.90;;
42246;SDS011;27913;42.722;23.268;2023-02-28T00:12:52;18.17;;;7.35;;
42246;SDS011;27913;42.722;23.268;2023-02-28T00:15:21;15.50;;;6.38;;
42246;SDS011;27913;42.722;23.268;2023-02-28T00:17:48;16.02;;;6.20;;
42246;SDS011;27913;42.722;23.268;2023-02-28T00:20:14;20.90;;;7.78;;
42246;SDS011;27913;42.722;23.268;2023-02-28T00:22:44;16.60;;;6.97;;
42246;SDS011;27913;42.722;23.268;2023-02-28T00:25:13;22.75;;;8.60;;
42246;SDS011;27913;42.722;23.268;2023-02-28T00:27:41;16.77;;;7.13;;
42246;SDS011;27913;42.722;23.268;2023-02-28T00:30:07;14.30;;;6.78;;
42246;SDS011;27913;42.722;23.268;2023-02-28T00:32:35;14.52;;;6.50;;
42246;SDS011;27913;42.722;23.268;2023-02-28T00:35:01;13.35;;;5.22;;
42246;SDS011;27913;42.722;23.268;2023-02-28T00:37:27;11.85;;;5.10;;
42246;SDS011;27913;42.722;23.268;2023-02-28T00:39:52;15.25;;;5.60;;
42246;SDS011;27913;42.722;23.268;2023-02-28T00:42:18;13.20;;;6.25;;
42246;SDS011;27913;42.722;23.268;2023-02-28T00:44:43;15.75;;;6.30;;
42246;SDS011;27913;42.722;23.268;2023-02-28T00:47:09;10.75;;;4.82;;
42246;SDS011;27913;42.722;23.268;2023-02-28T00:49:35;15.88;;;5.70;;
42246;SDS011;27913;42.722;23.268;2023-02-28T00:52:00;12.30;;;5.15;;
42246;SDS011;27913;42.722;23.268;2023-02-28T00:54:26;15.38;;;5.35;;
42246;SDS011;27913;42.722;23.268;2023-02-28T00:56:51;15.77;;;6.35;;
42246;SDS011;27913;42.722;23.268;2023-02-28T00:59:17;17.70;;;6.22;;
42246;SDS011;27913;42.722;23.268;2023-02-28T01:04:18;14.73;;;6.63;;
42246;SDS011;27913;42.722;23.268;2023-02-28T01:06:44;18.95;;;6.63;;
42246;SDS011;27913;42.722;23.268;2023-02-28T01:09:10;13.75;;;6.00;;
42246;SDS011;27913;42.722;23.268;2023-02-28T01:11:37;14.85;;;5.88;;
42246;SDS011;27913;42.722;23.268;2023-02-28T01:14:04;16.23;;;5.78;;
42246;SDS011;27913;42.722;23.268;2023-02-28T01:16:29;18.48;;;7.03;;
42246;SDS011;27913;42.722;23.268;2023-02-28T01:18:55;15.90;;;5.53;;
42246;SDS011;27913;42.722;23.268;2023-02-28T01:21:21;18.90;;;6.10;;
42246;SDS011;27913;42.722;23.268;2023-02-28T01:23:47;16.05;;;6.68;;
42246;SDS011;27913;42.722;23.268;2023-02-28T01:26:14;12.90;;;5.53;;
42246;SDS011;27913;42.722;23.268;2023-02-28T01:28:45;13.77;;;6.03;;
42246;SDS011;27913;42.722;23.268;2023-02-28T01:31:11;15.15;;;6.57;;
42246;SDS011;27913;42.722;23.268;2023-02-28T01:33:37;15.45;;;6.00;;
42246;SDS011;27913;42.722;23.268;2023-02-28T01:36:08;18.83;;;6.68;;
42246;SDS011;27913;42.722;23.268;2023-02-28T01:38:38;17.00;;;6.45;;
42246;SDS011;27913;42.722;23.268;2023-02-28T01:41:05;14.23;;;5.78;;
42246;SDS011;27913;42.722;23.268;2023-02-28T01:46:10;12.35;;;5.40;;
42246;SDS011;27913;42.722;23.268;2023-02-28T01:48:38;13.25;;;6.22;;
42246;SDS011;27913;42.722;23.268;2023-02-28T01:51:15;14.43;;;5.85;;
42246;SDS011;27913;42.722;23.268;2023-02-28T01:54:03;13.10;;;6.10;;
42246;SDS011;27913;42.722;23.268;2023-02-28T01:56:38;13.68;;;5.43;;
42246;SDS011;27913;42.722;23.268;2023-02-28T01:59:13;13.65;;;5.82;;
42246;SDS011;27913;42.722;23.268;2023-02-28T02:01:45;13.80;;;6.13;;
42246;SDS011;27913;42.722;23.268;2023-02-28T02:04:10;14.65;;;6.07;;
42246;SDS011;27913;42.722;23.268;2023-02-28T02:06:40;13.95;;;5.55;;
42246;SDS011;27913;42.722;23.268;2023-02-28T02:09:09;12.20;;;4.82;;
42246;SDS011;27913;42.722;23.268;2023-02-28T02:11:37;12.98;;;5.70;;
42246;SDS011;27913;42.722;23.268;2023-02-28T02:17:01;13.77;;;5.68;;
42246;SDS011;27913;42.722;23.268;2023-02-28T02:30:21;17.38;;;6.43;;
42246;SDS011;27913;42.722;23.268;2023-02-28T02:33:24;16.52;;;6.20;;
42246;SDS011;27913;42.722;23.268;2023-02-28T02:36:05;19.85;;;6.53;;
42246;SDS011;27913;42.722;23.268;2023-02-28T02:38:51;19.08;;;7.40;;
42246;SDS011;27913;42.722;23.268;2023-02-28T02:44:06;22.67;;;7.38;;
42246;SDS011;27913;42.722;23.268;2023-02-28T02:46:39;18.65;;;7.93;;
42246;SDS011;27913;42.722;23.268;2023-02-28T02:49:09;20.42;;;6.93;;
42246;SDS011;27913;42.722;23.268;2023-02-28T02:51:42;21.90;;;8.48;;
42246;SDS011;27913;42.722;23.268;2023-02-28T02:56:41;19.17;;;6.70;;
42246;SDS011;27913;42.722;23.268;2023-02-28T02:59:11;17.13;;;6.20;;
42246;SDS011;27913;42.722;23.268;2023-02-28T03:01:46;16.50;;;6.45;;
42246;SDS011;27913;42.722;23.268;2023-02-28T03:04:19;13.95;;;5.18;;
42246;SDS011;27913;42.722;23.268;2023-02-28T03:06:46;18.70;;;6.90;;
42246;SDS011;27913;42.722;23.268;2023-02-28T03:09:12;16.98;;;5.97;;
42246;SDS011;27913;42.722;23.268;2023-02-28T03:11:38;25.45;;;7.82;;
42246;SDS011;27913;42.722;23.268;2023-02-28T03:15:08;24.55;;;7.50;;
42246;SDS011;27913;42.722;23.268;2023-02-28T03:28:02;18.95;;;6.47;;
42246;SDS011;27913;42.722;23.268;2023-02-28T03:31:01;11.77;;;5.82;;
42246;SDS011;27913;42.722;23.268;2023-02-28T03:34:17;12.73;;;5.65;;
42246;SDS011;27913;42.722;23.268;2023-02-28T03:36:43;15.32;;;6.35;;
42246;SDS011;27913;42.722;23.268;2023-02-28T03:44:49;14.57;;;6.18;;
42246;SDS011;27913;42.722;23.268;2023-02-28T03:47:24;24.92;;;8.48;;
42246;SDS011;27913;42.722;23.268;2023-02-28T03:49:55;17.50;;;7.10;;
42246;SDS011;27913;42.722;23.268;2023-02-28T03:52:28;20.02;;;7.97;;
42246;SDS011;27913;42.722;23.268;2023-02-28T03:54:59;20.55;;;8.10;;
42246;SDS011;27913;42.722;23.268;2023-02-28T04:00:05;18.83;;;7.43;;
42246;SDS011;27913;42.722;23.268;2023-02-28T04:02:35;14.57;;;6.80;;
42246;SDS011;27913;42.722;23.268;2023-02-28T04:05:01;20.05;;;9.00;;
42246;SDS011;27913;42.722;23.268;2023-02-28T04:07:30;20.80;;;9.10;;
42246;SDS011;27913;42.722;23.268;2023-02-28T04:12:30;21.48;;;10.98;;
42246;SDS011;27913;42.722;23.268;2023-02-28T04:14:56;20.45;;;9.20;;
42246;SDS011;27913;42.722;23.268;2023-02-28T04:17:21;20.83;;;9.85;;
42246;SDS011;27913;42.722;23.268;2023-02-28T04:19:47;25.33;;;12.25;;
42246;SDS011;27913;42.722;23.268;2023-02-28T04:22:12;24.92;;;11.05;;
42246;SDS011;27913;42.722;23.268;2023-02-28T04:24:38;21.67;;;9.05;;
42246;SDS011;27913;42.722;23.268;2023-02-28T04:27:06;20.92;;;8.82;;
42246;SDS011;27913;42.722;23.268;2023-02-28T04:29:32;22.88;;;8.52;;
42246;SDS011;27913;42.722;23.268;2023-02-28T04:31:57;18.92;;;8.93;;
42246;SDS011;27913;42.722;23.268;2023-02-28T04:34:24;20.02;;;8.32;;
42246;SDS011;27913;42.722;23.268;2023-02-28T04:36:53;20.63;;;8.20;;
42246;SDS011;27913;42.722;23.268;2023-02-28T04:39:20;18.13;;;7.13;;
42246;SDS011;27913;42.722;23.268;2023-02-28T04:41:47;16.92;;;7.82;;
42246;SDS011;27913;42.722;23.268;2023-02-28T04:44:13;16.38;;;6.50;;
42246;SDS011;27913;42.722;23.268;2023-02-28T04:46:39;14.35;;;6.18;;
42246;SDS011;27913;42.722;23.268;2023-02-28T04:49:05;11.75;;;5.82;;
42246;SDS011;27913;42.722;23.268;2023-02-28T04:51:30;14.27;;;5.82;;
42246;SDS011;27913;42.722;23.268;2023-02-28T04:53:56;14.77;;;6.22;;
42246;SDS011;27913;42.722;23.268;2023-02-28T04:56:22;15.65;;;6.47;;
42246;SDS011;27913;42.722;23.268;2023-02-28T04:58:48;15.05;;;6.80;;
42246;SDS011;27913;42.722;23.268;2023-02-28T05:01:16;18.85;;;6.43;;
42246;SDS011;27913;42.722;23.268;2023-02-28T05:03:44;14.98;;;5.75;;
42246;SDS011;27913;42.722;23.268;2023-02-28T05:06:10;16.25;;;6.63;;
42246;SDS011;27913;42.722;23.268;2023-02-28T05:08:37;16.35;;;6.55;;
42246;SDS011;27913;42.722;23.268;2023-02-28T05:11:03;18.65;;;7.15;;
42246;SDS011;27913;42.722;23.268;2023-02-28T05:13:29;15.27;;;6.10;;
42246;SDS011;27913;42.722;23.268;2023-02-28T05:15:55;17.25;;;7.47;;
42246;SDS011;27913;42.722;23.268;2023-02-28T05:18:21;33.10;;;11.77;;
42246;SDS011;27913;42.722;23.268;2023-02-28T05:20:46;19.55;;;7.85;;
42246;SDS011;27913;42.722;23.268;2023-02-28T05:23:13;16.23;;;6.85;;
42246;SDS011;27913;42.722;23.268;2023-02-28T05:25:39;16.65;;;6.93;;
42246;SDS011;27913;42.722;23.268;2023-02-28T05:28:05;24.80;;;9.60;;
42246;SDS011;27913;42.722;23.268;2023-02-28T05:30:31;19.85;;;7.55;;
42246;SDS011;27913;42.722;23.268;2023-02-28T05:32:57;19.70;;;8.02;;
42246;SDS011;27913;42.722;23.268;2023-02-28T05:35:26;18.08;;;7.63;;
42246;SDS011;27913;42.722;23.268;2023-02-28T05:37:51;23.73;;;11.13;;
42246;SDS011;27913;42.722;23.268;2023-02-28T05:40:17;23.63;;;11.07;;
42246;SDS011;27913;42.722;23.268;2023-02-28T05:42:42;20.83;;;9.52;;
42246;SDS011;27913;42.722;23.268;2023-02-28T05:45:08;19.70;;;7.80;;
42246;SDS011;27913;42.722;23.268;2023-02-28T05:47:36;21.08;;;8.93;;
42246;SDS011;27913;42.722;23.268;2023-02-28T05:50:02;16.80;;;6.93;;
42246;SDS011;27913;42.722;23.268;2023-02-28T05:52:28;17.60;;;7.38;;
42246;SDS011;27913;42.722;23.268;2023-02-28T05:54:57;20.23;;;7.30;;
42246;SDS011;27913;42.722;23.268;2023-02-28T05:57:23;22.52;;;7.25;;
42246;SDS011;27913;42.722;23.268;2023-02-28T05:59:49;16.60;;;7.28;;
42246;SDS011;27913;42.722;23.268;2023-02-28T06:02:15;20.10;;;8.40;;
42246;SDS011;27913;42.722;23.268;2023-02-28T06:04:42;22.77;;;8.32;;
42246;SDS011;27913;42.722;23.268;2023-02-28T06:07:08;18.38;;;8.02;;
42246;SDS011;27913;42.722;23.268;2023-02-28T06:09:34;23.73;;;8.63;;
42246;SDS011;27913;42.722;23.268;2023-02-28T06:12:01;20.02;;;7.68;;
42246;SDS011;27913;42.722;23.268;2023-02-28T06:14:30;20.00;;;7.03;;
42246;SDS011;27913;42.722;23.268;2023-02-28T06:16:57;21.63;;;8.85;;
42246;SDS011;27913;42.722;23.268;2023-02-28T06:19:23;27.00;;;10.77;;
42246;SDS011;27913;42.722;23.268;2023-02-28T06:21:51;20.88;;;9.02;;
42246;SDS011;27913;42.722;23.268;2023-02-28T06:24:18;26.20;;;10.82;;
42246;SDS011;27913;42.722;23.268;2023-02-28T06:26:44;46.50;;;14.40;;
42246;SDS011;27913;42.722;23.268;2023-02-28T06:29:10;37.15;;;13.18;;
42246;SDS011;27913;42.722;23.268;2023-02-28T06:31:35;33.42;;;10.75;;
42246;SDS011;27913;42.722;23.268;2023-02-28T06:34:01;28.92;;;11.73;;
42246;SDS011;27913;42.722;23.268;2023-02-28T06:36:26;28.00;;;10.48;;
42246;SDS011;27913;42.722;23.268;2023-02-28T06:38:52;32.65;;;10.25;;
42246;SDS011;27913;42.722;23.268;2023-02-28T06:41:23;31.58;;;10.98;;
42246;SDS011;27913;42.722;23.268;2023-02-28T06:43:50;37.03;;;10.63;;
42246;SDS011;27913;42.722;23.268;2023-02-28T06:46:17;30.45;;;11.15;;
42246;SDS011;27913;42.722;23.268;2023-02-28T06:48:43;28.75;;;12.38;;
42246;SDS011;27913;42.722;23.268;2023-02-28T06:51:16;33.08;;;11.65;;
42246;SDS011;27913;42.722;23.268;2023-02-28T06:53:45;29.00;;;10.43;;
42246;SDS011;27913;42.722;23.268;2023-02-28T06:56:12;31.88;;;12.18;;
42246;SDS011;27913;42.722;23.268;2023-02-28T06:58:40;38.00;;;12.15;;
42246;SDS011;27913;42.722;23.268;2023-02-28T07:01:06;32.47;;;12.93;;
42246;SDS011;27913;42.722;23.268;2023-02-28T07:03:32;36.05;;;11.07;;
42246;SDS011;27913;42.722;23.268;2023-02-28T07:05:57;33.25;;;12.15;;
42246;SDS011;27913;42.722;23.268;2023-02-28T07:08:23;33.03;;;11.77;;
42246;SDS011;27913;42.722;23.268;2023-02-28T07:10:53;34.78;;;15.10;;
42246;SDS011;27913;42.722;23.268;2023-02-28T07:13:20;49.20;;;17.65;;
42246;SDS011;27913;42.722;23.268;2023-02-28T07:15:56;42.03;;;17.58;;
42246;SDS011;27913;42.722;23.268;2023-02-28T07:18:23;36.38;;;14.85;;
42246;SDS011;27913;42.722;23.268;2023-02-28T07:20:49;36.80;;;14.60;;
42246;SDS011;27913;42.722;23.268;2023-02-28T07:23:15;36.08;;;13.77;;
42246;SDS011;27913;42.722;23.268;2023-02-28T07:25:41;37.00;;;12.98;;
42246;SDS011;27913;42.722;23.268;2023-02-28T07:28:10;39.05;;;14.07;;
42246;SDS011;27913;42.722;23.268;2023-02-28T07:30:37;38.03;;;14.40;;
42246;SDS011;27913;42.722;23.268;2023-02-28T07:33:03;42.28;;;15.77;;
42246;SDS011;27913;42.722;23.268;2023-02-28T07:35:29;45.67;;;17.45;;
42246;SDS011;27913;42.722;23.268;2023-02-28T07:37:54;45.88;;;16.42;;
42246;SDS011;27913;42.722;23.268;2023-02-28T07:40:22;39.17;;;14.13;;
42246;SDS011;27913;42.722;23.268;2023-02-28T07:42:47;41.33;;;15.68;;
42246;SDS011;27913;42.722;23.268;2023-02-28T07:45:12;39.50;;;14.20;;
42246;SDS011;27913;42.722;23.268;2023-02-28T07:47:38;31.17;;;12.55;;
42246;SDS011;27913;42.722;23.268;2023-02-28T07:50:06;31.77;;;13.20;;
42246;SDS011;27913;42.722;23.268;2023-02-28T07:52:33;34.78;;;13.80;;
42246;SDS011;27913;42.722;23.268;2023-02-28T07:54:58;39.83;;;13.48;;
42246;SDS011;27913;42.722;23.268;2023-02-28T07:57:24;33.72;;;13.95;;
42246;SDS011;27913;42.722;23.268;2023-02-28T07:59:50;37.55;;;14.25;;
42246;SDS011;27913;42.722;23.268;2023-02-28T08:02:16;40.60;;;16.05;;
42246;SDS011;27913;42.722;23.268;2023-02-28T08:04:43;42.30;;;16.48;;
42246;SDS011;27913;42.722;23.268;2023-02-28T08:07:09;45.75;;;16.55;;
42246;SDS011;27913;42.722;23.268;2023-02-28T08:09:38;42.00;;;15.95;;
42246;SDS011;27913;42.722;23.268;2023-02-28T08:12:04;41.33;;;16.05;;
42246;SDS011;27913;42.722;23.268;2023-02-28T08:14:29;42.60;;;16.25;;
42246;SDS011;27913;42.722;23.268;2023-02-28T08:16:55;41.25;;;14.43;;
42246;SDS011;27913;42.722;23.268;2023-02-28T08:19:20;41.45;;;15.60;;
42246;SDS011;27913;42.722;23.268;2023-02-28T08:21:46;38.25;;;14.90;;
42246;SDS011;27913;42.722;23.268;2023-02-28T08:24:11;33.75;;;14.23;;
42246;SDS011;27913;42.722;23.268;2023-02-28T08:26:37;47.85;;;17.98;;
42246;SDS011;27913;42.722;23.268;2023-02-28T08:29:02;48.15;;;17.42;;
42246;SDS011;27913;42.722;23.268;2023-02-28T08:31:28;42.83;;;15.43;;
42246;SDS011;27913;42.722;23.268;2023-02-28T08:33:53;38.72;;;14.63;;
42246;SDS011;27913;42.722;23.268;2023-02-28T08:36:21;42.35;;;16.13;;
42246;SDS011;27913;42.722;23.268;2023-02-28T08:38:48;44.08;;;15.38;;
42246;SDS011;27913;42.722;23.268;2023-02-28T08:41:14;38.50;;;16.05;;
42246;SDS011;27913;42.722;23.268;2023-02-28T08:43:40;37.92;;;15.40;;
42246;SDS011;27913;42.722;23.268;2023-02-28T08:46:06;37.53;;;14.55;;
42246;SDS011;27913;42.722;23.268;2023-02-28T08:48:33;44.72;;;15.63;;
42246;SDS011;27913;42.722;23.268;2023-02-28T08:51:01;38.22;;;15.05;;
42246;SDS011;27913;42.722;23.268;2023-02-28T08:53:28;37.05;;;14.85;;
42246;SDS011;27913;42.722;23.268;2023-02-28T08:55:58;32.83;;;14.45;;
42246;SDS011;27913;42.722;23.268;2023-02-28T08:58:25;44.50;;;17.00;;
42246;SDS011;27913;42.722;23.268;2023-02-28T09:00:52;39.40;;;14.85;;
42246;SDS011;27913;42.722;23.268;2023-02-28T09:03:17;34.67;;;15.85;;
42246;SDS011;27913;42.722;23.268;2023-02-28T09:05:53;39.35;;;15.60;;
42246;SDS011;27913;42.722;23.268;2023-02-28T09:08:20;41.17;;;17.17;;
42246;SDS011;27913;42.722;23.268;2023-02-28T09:10:46;37.65;;;16.27;;
42246;SDS011;27913;42.722;23.268;2023-02-28T09:13:12;45.38;;;15.95;;
42246;SDS011;27913;42.722;23.268;2023-02-28T09:15:38;41.72;;;17.85;;
42246;SDS011;27913;42.722;23.268;2023-02-28T09:18:03;41.28;;;17.67;;
42246;SDS011;27913;42.722;23.268;2023-02-28T09:20:29;41.17;;;17.42;;
42246;SDS011;27913;42.722;23.268;2023-02-28T09:22:54;45.95;;;19.95;;
42246;SDS011;27913;42.722;23.268;2023-02-28T09:25:20;43.42;;;18.80;;
42246;SDS011;27913;42.722;23.268;2023-02-28T09:27:45;39.35;;;16.20;;
42246;SDS011;27913;42.722;23.268;2023-02-28T09:30:11;34.90;;;16.40;;
42246;SDS011;27913;42.722;23.268;2023-02-28T09:32:38;46.47;;;20.08;;
42246;SDS011;27913;42.722;23.268;2023-02-28T09:35:03;49.30;;;19.08;;
42246;SDS011;27913;42.722;23.268;2023-02-28T09:37:29;52.28;;;18.80;;
42246;SDS011;27913;42.722;23.268;2023-02-28T09:39:56;58.08;;;19.48;;
42246;SDS011;27913;42.722;23.268;2023-02-28T09:42:23;42.83;;;16.75;;
42246;SDS011;27913;42.722;23.268;2023-02-28T09:44:54;54.95;;;20.30;;
42246;SDS011;27913;42.722;23.268;2023-02-28T09:47:32;52.63;;;22.98;;
42246;SDS011;27913;42.722;23.268;2023-02-28T09:50:16;43.20;;;20.53;;
42246;SDS011;27913;42.722;23.268;2023-02-28T09:52:45;40.90;;;16.67;;
42246;SDS011;27913;42.722;23.268;2023-02-28T09:57:40;46.25;;;17.30;;
42246;SDS011;27913;42.722;23.268;2023-02-28T10:00:13;41.45;;;16.23;;
42246;SDS011;27913;42.722;23.268;2023-02-28T10:06:00;38.28;;;16.25;;
42246;SDS011;27913;42.722;23.268;2023-02-28T10:11:35;31.35;;;12.13;;
42246;SDS011;27913;42.722;23.268;2023-02-28T10:16:55;39.65;;;15.45;;
42246;SDS011;27913;42.722;23.268;2023-02-28T10:21:59;46.10;;;17.00;;
42246;SDS011;27913;42.722;23.268;2023-02-28T10:24:30;48.75;;;17.80;;
42246;SDS011;27913;42.722;23.268;2023-02-28T10:27:06;44.38;;;17.10;;
42246;SDS011;27913;42.722;23.268;2023-02-28T10:29:39;44.35;;;16.85;;
42246;SDS011;27913;42.722;23.268;2023-02-28T10:32:08;44.10;;;15.93;;
42246;SDS011;27913;42.722;23.268;2023-02-28T10:34:35;46.08;;;16.48;;
42246;SDS011;27913;42.722;23.268;2023-02-28T10:37:01;40.05;;;14.88;;
42246;SDS011;27913;42.722;23.268;2023-02-28T10:42:05;51.45;;;16.45;;
42246;SDS011;27913;42.722;23.268;2023-02-28T10:44:44;22.48;;;9.57;;
42246;SDS011;27913;42.722;23.268;2023-02-28T10:47:17;25.02;;;8.43;;
42246;SDS011;27913;42.722;23.268;2023-02-28T10:49:48;25.38;;;9.25;;
42246;SDS011;27913;42.722;23.268;2023-02-28T10:52:16;23.92;;;8.40;;
42246;SDS011;27913;42.722;23.268;2023-02-28T10:57:50;22.15;;;8.35;;
42246;SDS011;27913;42.722;23.268;2023-02-28T11:00:21;23.27;;;8.27;;
42246;SDS011;27913;42.722;23.268;2023-02-28T11:02:50;16.42;;;6.68;;
42246;SDS011;27913;42.722;23.268;2023-02-28T11:07:55;25.38;;;7.25;;
42246;SDS011;27913;42.722;23.268;2023-02-28T11:10:25;19.45;;;7.38;;
42246;SDS011;27913;42.722;23.268;2023-02-28T11:12:56;22.98;;;7.07;;
42246;SDS011;27913;42.722;23.268;2023-02-28T11:15:23;19.10;;;8.07;;
42246;SDS011;27913;42.722;23.268;2023-02-28T11:20:21;16.35;;;5.80;;
42246;SDS011;27913;42.722;23.268;2023-02-28T11:22:51;14.47;;;5.97;;
42246;SDS011;27913;42.722;23.268;2023-02-28T11:25:24;22.17;;;6.43;;
42246;SDS011;27913;42.722;23.268;2023-02-28T11:28:01;17.13;;;6.80;;
42246;SDS011;27913;42.722;23.268;2023-02-28T11:30:34;17.13;;;6.75;;
42246;SDS011;27913;42.722;23.268;2023-02-28T11:35:58;22.67;;;6.47;;
42246;SDS011;27913;42.722;23.268;2023-02-28T11:38:27;18.60;;;6.35;;
42246;SDS011;27913;42.722;23.268;2023-02-28T11:43:35;23.27;;;6.00;;
42246;SDS011;27913;42.722;23.268;2023-02-28T11:49:02;14.30;;;5.57;;
42246;SDS011;27913;42.722;23.268;2023-02-28T11:52:04;16.70;;;6.35;;
42246;SDS011;27913;42.722;23.268;2023-02-28T11:57:37;25.88;;;10.05;;
42246;SDS011;27913;42.722;23.268;2023-02-28T12:08:22;23.17;;;8.10;;
42246;SDS011;27913;42.722;23.268;2023-02-28T12:13:41;15.90;;;5.90;;
42246;SDS011;27913;42.722;23.268;2023-02-28T12:22:20;16.95;;;5.93;;
42246;SDS011;27913;42.722;23.268;2023-02-28T12:25:06;18.42;;;6.45;;
42246;SDS011;27913;42.722;23.268;2023-02-28T12:27:46;18.58;;;6.97;;
42246;SDS011;27913;42.722;23.268;2023-02-28T12:30:19;16.85;;;6.63;;
42246;SDS011;27913;42.722;23.268;2023-02-28T12:32:56;18.27;;;6.03;;
42246;SDS011;27913;42.722;23.268;2023-02-28T12:35:37;22.27;;;6.60;;
42246;SDS011;27913;42.722;23.268;2023-02-28T12:38:28;19.65;;;6.07;;
42246;SDS011;27913;42.722;23.268;2023-02-28T12:41:03;14.27;;;4.10;;
42246;SDS011;27913;42.722;23.268;2023-02-28T12:43:38;19.60;;;5.65;;
42246;SDS011;27913;42.722;23.268;2023-02-28T12:46:14;16.00;;;5.20;;
42246;SDS011;27913;42.722;23.268;2023-02-28T12:48:46;18.05;;;6.60;;
42246;SDS011;27913;42.722;23.268;2023-02-28T12:51:16;17.08;;;6.43;;
42246;SDS011;27913;42.722;23.268;2023-02-28T12:56:17;17.50;;;4.90;;
42246;SDS011;27913;42.722;23.268;2023-02-28T12:58:50;22.13;;;6.55;;
42246;SDS011;27913;42.722;23.268;2023-02-28T13:02:02;29.30;;;6.93;;
42246;SDS011;27913;42.722;23.268;2023-02-28T13:10:07;12.35;;;4.65;;
42246;SDS011;27913;42.722;23.268;2023-02-28T13:12:34;16.23;;;5.20;;
42246;SDS011;27913;42.722;23.268;2023-02-28T13:15:07;18.40;;;4.50;;
42246;SDS011;27913;42.722;23.268;2023-02-28T13:17:48;14.05;;;5.22;;
42246;SDS011;27913;42.722;23.268;2023-02-28T13:20:25;10.35;;;4.38;;
42246;SDS011;27913;42.722;23.268;2023-02-28T13:22:54;13.13;;;4.38;;
42246;SDS011;27913;42.722;23.268;2023-02-28T13:28:56;16.75;;;5.45;;
42246;SDS011;27913;42.722;23.268;2023-02-28T13:31:13;18.73;;;6.88;;
42246;SDS011;27913;42.722;23.268;2023-02-28T13:36:30;13.57;;;5.00;;
42246;SDS011;27913;42.722;23.268;2023-02-28T13:41:48;11.93;;;4.28;;
42246;SDS011;27913;42.722;23.268;2023-02-28T13:44:18;19.35;;;4.75;;
42246;SDS011;27913;42.722;23.268;2023-02-28T13:51:47;23.67;;;10.55;;
42246;SDS011;27913;42.722;23.268;2023-02-28T13:54:18;19.80;;;6.18;;
42246;SDS011;27913;42.722;23.268;2023-02-28T14:05:00;21.15;;;7.63;;
42246;SDS011;27913;42.722;23.268;2023-02-28T14:07:32;15.27;;;5.60;;
42246;SDS011;27913;42.722;23.268;2023-02-28T14:10:07;20.98;;;5.32;;
42246;SDS011;27913;42.722;23.268;2023-02-28T14:15:30;17.95;;;5.10;;
42246;SDS011;27913;42.722;23.268;2023-02-28T14:21:19;18.10;;;5.38;;
42246;SDS011;27913;42.722;23.268;2023-02-28T14:26:51;15.60;;;4.68;;
42246;SDS011;27913;42.722;23.268;2023-02-28T14:29:37;26.30;;;5.82;;
42246;SDS011;27913;42.722;23.268;2023-02-28T14:37:48;17.80;;;6.50;;
42246;SDS011;27913;42.722;23.268;2023-02-28T14:40:15;15.57;;;5.70;;
42246;SDS011;27913;42.722;23.268;2023-02-28T14:42:46;20.55;;;6.90;;
42246;SDS011;27913;42.722;23.268;2023-02-28T14:45:27;22.63;;;7.60;;
42246;SDS011;27913;42.722;23.268;2023-02-28T14:47:55;32.55;;;8.75;;
42246;SDS011;27913;42.722;23.268;2023-02-28T14:50:35;28.73;;;8.63;;
42246;SDS011;27913;42.722;23.268;2023-02-28T14:53:15;22.08;;;7.25;;
42246;SDS011;27913;42.722;23.268;2023-02-28T14:55:44;27.83;;;7.43;;
42246;SDS011;27913;42.722;23.268;2023-02-28T14:58:26;29.30;;;8.07;;
42246;SDS011;27913;42.722;23.268;2023-02-28T15:00:54;14.57;;;5.40;;
42246;SDS011;27913;42.722;23.268;2023-02-28T15:05:59;25.42;;;7.63;;
42246;SDS011;27913;42.722;23.268;2023-02-28T15:08:29;20.33;;;5.43;;
42246;SDS011;27913;42.722;23.268;2023-02-28T15:11:13;33.28;;;8.35;;
42246;SDS011;27913;42.722;23.268;2023-02-28T15:13:42;33.60;;;10.55;;
42246;SDS011;27913;42.722;23.268;2023-02-28T15:16:20;27.25;;;8.23;;
42246;SDS011;27913;42.722;23.268;2023-02-28T15:23:43;13.40;;;6.07;;
42246;SDS011;27913;42.722;23.268;2023-02-28T15:26:15;14.75;;;5.65;;
42246;SDS011;27913;42.722;23.268;2023-02-28T15:28:43;14.52;;;5.50;;
42246;SDS011;27913;42.722;23.268;2023-02-28T15:31:19;14.20;;;5.03;;
42246;SDS011;27913;42.722;23.268;2023-02-28T15:33:52;21.60;;;6.90;;
42246;SDS011;27913;42.722;23.268;2023-02-28T15:36:19;14.75;;;7.60;;
42246;SDS011;27913;42.722;23.268;2023-02-28T15:38:50;20.55;;;11.65;;
42246;SDS011;27913;42.722;23.268;2023-02-28T15:41:24;19.42;;;7.57;;
42246;SDS011;27913;42.722;23.268;2023-02-28T15:47:13;13.15;;;5.10;;
42246;SDS011;27913;42.722;23.268;2023-02-28T15:49:49;16.55;;;6.28;;
42246;SDS011;27913;42.722;23.268;2023-02-28T15:52:18;14.38;;;4.80;;
42246;SDS011;27913;42.722;23.268;2023-02-28T15:54:47;14.15;;;5.57;;
42246;SDS011;27913;42.722;23.268;2023-02-28T15:57:17;17.92;;;6.95;;
42246;SDS011;27913;42.722;23.268;2023-02-28T15:59:54;13.98;;;5.65;;
42246;SDS011;27913;42.722;23.268;2023-02-28T16:02:22;12.55;;;5.18;;
42246;SDS011;27913;42.722;23.268;2023-02-28T16:05:42;11.07;;;4.57;;
42246;SDS011;27913;42.722;23.268;2023-02-28T16:07:56;10.45;;;4.85;;
42246;SDS011;27913;42.722;23.268;2023-02-28T16:10:23;11.80;;;5.10;;
42246;SDS011;27913;42.722;23.268;2023-02-28T16:12:52;14.18;;;5.88;;
42246;SDS011;27913;42.722;23.268;2023-02-28T16:15:26;9.88;;;4.53;;
42246;SDS011;27913;42.722;23.268;2023-02-28T16:17:54;12.88;;;5.07;;
42246;SDS011;27913;42.722;23.268;2023-02-28T16:20:26;9.77;;;4.00;;
42246;SDS011;27913;42.722;23.268;2023-02-28T16:22:53;8.55;;;3.17;;
42246;SDS011;27913;42.722;23.268;2023-02-28T16:25:20;10.88;;;5.10;;
42246;SDS011;27913;42.722;23.268;2023-02-28T16:27:50;15.00;;;4.75;;
42246;SDS011;27913;42.722;23.268;2023-02-28T16:30:26;12.70;;;5.22;;
42246;SDS011;27913;42.722;23.268;2023-02-28T16:32:54;12.68;;;4.43;;
42246;SDS011;27913;42.722;23.268;2023-02-28T16:35:21;11.60;;;4.88;;
42246;SDS011;27913;42.722;23.268;2023-02-28T16:37:47;10.70;;;4.53;;
42246;SDS011;27913;42.722;23.268;2023-02-28T16:42:42;11.85;;;4.45;;
42246;SDS011;27913;42.722;23.268;2023-02-28T16:45:23;15.10;;;4.78;;
42246;SDS011;27913;42.722;23.268;2023-02-28T16:47:53;13.35;;;5.07;;
42246;SDS011;27913;42.722;23.268;2023-02-28T16:50:26;10.50;;;4.03;;
42246;SDS011;27913;42.722;23.268;2023-02-28T16:52:53;18.35;;;5.90;;
42246;SDS011;27913;42.722;23.268;2023-02-28T16:55:20;10.07;;;3.40;;
42246;SDS011;27913;42.722;23.268;2023-02-28T16:57:48;8.80;;;2.85;;
42246;SDS011;27913;42.722;23.268;2023-02-28T17:00:17;10.60;;;4.45;;
42246;SDS011;27913;42.722;23.268;2023-02-28T17:02:43;11.65;;;3.22;;
42246;SDS011;27913;42.722;23.268;2023-02-28T17:05:10;6.57;;;2.60;;
42246;SDS011;27913;42.722;23.268;2023-02-28T17:07:40;9.23;;;3.88;;
42246;SDS011;27913;42.722;23.268;2023-02-28T17:10:19;14.52;;;4.63;;